createdAt,value
2023-03-24T00:02:25.863Z,6.62
2023-03-24T00:04:58.968Z,6.75
2023-03-24T00:07:30.882Z,6.75
2023-03-24T00:09:59.550Z,6.68
2023-03-24T00:12:28.221Z,6.71
2023-03-24T00:14:57.125Z,6.80
2023-03-24T00:17:29.407Z,6.78
2023-03-24T00:19:58.231Z,6.73
2023-03-24T00:22:28.405Z,6.82
2023-03-24T00:24:57.196Z,6.75
2023-03-24T00:27:26.180Z,6.70
2023-03-24T00:29:54.688Z,6.75
2023-03-24T00:32:24.319Z,6.82
2023-03-24T00:34:54.729Z,6.77
2023-03-24T00:37:24.417Z,6.81
2023-03-24T00:39:53.024Z,6.77
2023-03-24T00:42:22.544Z,6.74
2023-03-24T00:44:51.336Z,6.74
2023-03-24T00:47:26.164Z,6.69
2023-03-24T00:49:58.270Z,6.65
2023-03-24T00:52:34.161Z,6.72
2023-03-24T00:55:05.755Z,6.64
2023-03-24T00:57:35.668Z,6.67
2023-03-24T01:00:14.679Z,6.67
2023-03-24T01:02:43.928Z,6.67
2023-03-24T01:05:18.118Z,6.69
2023-03-24T01:07:52.515Z,6.76
2023-03-24T01:10:26.862Z,6.82
2023-03-24T01:12:58.524Z,6.78
2023-03-24T01:15:30.208Z,6.77
2023-03-24T01:18:02.584Z,6.86
2023-03-24T01:20:35.873Z,6.86
2023-03-24T01:23:06.514Z,6.82
2023-03-24T01:25:37.951Z,6.87
2023-03-24T01:28:07.547Z,6.84
2023-03-24T01:30:36.595Z,7.01
2023-03-24T01:33:06.320Z,7.00
2023-03-24T01:35:37.486Z,7.09
2023-03-24T01:38:09.190Z,7.13
2023-03-24T01:40:41.947Z,7.16
2023-03-24T01:43:20.406Z,7.24
2023-03-24T01:46:18.122Z,7.27
2023-03-24T01:48:52.621Z,7.41
2023-03-24T01:51:26.461Z,7.38
2023-03-24T01:53:57.893Z,7.42
2023-03-24T01:56:27.713Z,7.40
2023-03-24T01:59:00.528Z,7.44
2023-03-24T02:01:32.277Z,7.47
2023-03-24T02:04:04.680Z,7.43
2023-03-24T02:06:44.298Z,7.43
2023-03-24T02:09:15.648Z,7.43
2023-03-24T02:11:46.534Z,7.41
2023-03-24T02:14:15.802Z,7.37
2023-03-24T02:16:59.404Z,7.37
2023-03-24T02:19:57.598Z,7.32
2023-03-24T02:23:02.084Z,7.29
2023-03-24T02:25:56.191Z,7.33
2023-03-24T02:28:38.659Z,7.35
2023-03-24T02:31:52.702Z,7.31
2023-03-24T02:34:57.408Z,7.24
2023-03-24T02:37:49.333Z,7.27
2023-03-24T02:40:35.661Z,7.26
2023-03-24T02:43:25.182Z,7.24
2023-03-24T02:46:13.858Z,7.26
2023-03-24T02:48:56.513Z,7.21
2023-03-24T02:51:31.940Z,7.21
2023-03-24T02:54:09.790Z,7.26
2023-03-24T02:56:44.785Z,7.25
2023-03-24T02:59:19.973Z,7.25
2023-03-24T03:01:57.909Z,7.20
2023-03-24T03:04:33.288Z,7.19
2023-03-24T03:07:10.363Z,7.18
2023-03-24T03:09:43.019Z,7.21
2023-03-24T03:12:15.887Z,7.19
2023-03-24T03:14:49.033Z,7.19
2023-03-24T03:17:21.149Z,7.14
2023-03-24T03:19:56.372Z,7.08
2023-03-24T03:22:31.063Z,7.04
2023-03-24T03:25:03.892Z,7.05
2023-03-24T03:27:39.324Z,7.07
2023-03-24T03:30:13.900Z,7.07
2023-03-24T03:32:46.721Z,7.05
2023-03-24T03:35:22.821Z,7.08
2023-03-24T03:37:58.867Z,7.14
2023-03-24T03:40:34.689Z,7.12
2023-03-24T03:43:05.973Z,7.18
2023-03-24T03:45:35.116Z,7.19
2023-03-24T03:48:03.912Z,7.31
2023-03-24T03:50:33.946Z,7.34
2023-03-24T03:53:03.776Z,7.34
2023-03-24T03:55:32.811Z,7.29
2023-03-24T03:58:01.763Z,7.27
2023-03-24T04:00:32.183Z,7.37
2023-03-24T04:03:19.364Z,7.36
2023-03-24T04:05:58.019Z,7.46
2023-03-24T04:08:33.790Z,7.41
2023-03-24T04:11:26.041Z,7.54
2023-03-24T04:14:11.132Z,7.52
2023-03-24T04:16:55.146Z,7.56
2023-03-24T04:19:38.930Z,7.55
2023-03-24T04:22:24.365Z,7.58
2023-03-24T04:24:57.187Z,7.62
2023-03-24T04:27:38.566Z,7.56
2023-03-24T04:30:17.011Z,7.56
2023-03-24T04:32:58.697Z,7.72
2023-03-24T04:35:33.122Z,7.67
2023-03-24T04:38:05.443Z,7.62
2023-03-24T04:40:42.036Z,7.58
2023-03-24T04:43:15.154Z,7.63
2023-03-24T04:45:44.029Z,7.51
2023-03-24T04:48:16.263Z,7.48
2023-03-24T04:50:53.047Z,7.58
2023-03-24T04:53:22.815Z,7.56
2023-03-24T04:56:19.749Z,7.56
2023-03-24T04:58:51.049Z,7.55
2023-03-24T05:01:21.727Z,7.54
2023-03-24T05:03:52.157Z,7.55
2023-03-24T05:06:20.639Z,7.45
2023-03-24T05:08:49.262Z,7.63
2023-03-24T05:11:18.142Z,7.60
2023-03-24T05:13:47.430Z,7.59
2023-03-24T05:16:17.159Z,7.61
2023-03-24T05:18:45.737Z,7.60
2023-03-24T05:21:15.515Z,7.65
2023-03-24T05:23:43.931Z,7.54
2023-03-24T05:26:12.448Z,7.61
2023-03-24T05:28:41.078Z,7.54
2023-03-24T05:31:09.528Z,7.53
2023-03-24T05:33:38.486Z,7.55
2023-03-24T05:36:07.405Z,7.59
2023-03-24T05:38:37.630Z,7.54
2023-03-24T05:41:07.641Z,7.47
2023-03-24T05:43:36.304Z,7.51
2023-03-24T05:46:04.744Z,7.55
2023-03-24T05:48:33.311Z,7.54
2023-03-24T05:51:02.081Z,7.57
2023-03-24T05:53:31.246Z,7.56
2023-03-24T05:56:01.381Z,7.45
2023-03-24T05:58:29.983Z,7.51
2023-03-24T06:01:00.130Z,7.51
2023-03-24T06:03:34.937Z,7.56
2023-03-24T06:06:03.906Z,7.57
2023-03-24T06:08:34.107Z,7.59
2023-03-24T06:11:05.724Z,7.66
2023-03-24T06:13:34.462Z,7.64
2023-03-24T06:16:03.915Z,7.72
2023-03-24T06:18:33.835Z,7.69
2023-03-24T06:21:02.529Z,7.66
2023-03-24T06:23:31.111Z,7.62
2023-03-24T06:26:01.836Z,7.53
2023-03-24T06:28:34.848Z,7.54
2023-03-24T06:31:06.960Z,7.47
2023-03-24T06:33:35.459Z,7.48
2023-03-24T06:36:04.506Z,7.37
2023-03-24T06:38:33.947Z,7.46
2023-03-24T06:41:03.299Z,7.45
2023-03-24T06:43:33.825Z,7.50
2023-03-24T06:46:02.748Z,7.52
2023-03-24T06:48:31.466Z,7.59
2023-03-24T06:51:00.191Z,7.54
2023-03-24T06:53:28.944Z,7.67
2023-03-24T06:55:57.573Z,7.68
2023-03-24T06:58:27.112Z,7.69
2023-03-24T07:00:57.722Z,7.75
2023-03-24T07:03:26.773Z,7.83
2023-03-24T07:05:55.788Z,7.86
2023-03-24T07:08:37.551Z,7.85
2023-03-24T07:11:10.050Z,7.92
2023-03-24T07:13:39.407Z,7.93
2023-03-24T07:16:10.269Z,7.88
2023-03-24T07:18:38.950Z,7.83
2023-03-24T07:21:08.675Z,7.85
2023-03-24T07:23:37.580Z,7.92
2023-03-24T07:26:07.799Z,8.02
2023-03-24T07:28:36.181Z,8.10
2023-03-24T07:31:07.016Z,8.10
2023-03-24T07:33:38.861Z,8.14
2023-03-24T07:36:08.420Z,8.18
2023-03-24T07:38:36.881Z,8.10
2023-03-24T07:41:05.200Z,8.09
2023-03-24T07:43:35.584Z,8.11
2023-03-24T07:46:04.340Z,8.12
2023-03-24T07:48:32.804Z,8.24
2023-03-24T07:51:03.612Z,8.32
2023-03-24T07:53:32.830Z,8.30
2023-03-24T07:56:02.229Z,8.39
2023-03-24T07:58:30.668Z,8.44
2023-03-24T08:00:59.098Z,8.46
2023-03-24T08:03:30.534Z,8.51
2023-03-24T08:06:04.550Z,8.53
2023-03-24T08:08:36.605Z,8.57
2023-03-24T08:11:05.735Z,8.64
2023-03-24T08:13:35.328Z,8.64
2023-03-24T08:16:04.178Z,8.65
2023-03-24T08:18:35.274Z,8.64
2023-03-24T08:21:03.625Z,8.63
2023-03-24T08:23:32.180Z,8.62
2023-03-24T08:26:03.329Z,8.64
2023-03-24T08:28:31.843Z,8.62
2023-03-24T08:31:01.484Z,8.65
2023-03-24T08:33:30.226Z,8.66
2023-03-24T08:35:58.895Z,8.73
2023-03-24T08:38:30.949Z,8.72
2023-03-24T08:41:02.380Z,8.74
2023-03-24T08:43:32.448Z,8.76
2023-03-24T08:46:02.718Z,8.90
2023-03-24T08:48:33.235Z,9.08
2023-03-24T08:51:01.708Z,9.19
2023-03-24T08:53:30.324Z,9.21
2023-03-24T08:55:58.812Z,9.20
2023-03-24T08:58:27.390Z,9.22
2023-03-24T09:00:57.519Z,9.37
2023-03-24T09:03:26.626Z,9.44
2023-03-24T09:05:58.810Z,9.60
2023-03-24T09:08:27.711Z,9.66
2023-03-24T09:10:56.323Z,9.71
2023-03-24T09:13:25.339Z,9.61
2023-03-24T09:16:00.201Z,9.58
2023-03-24T09:18:29.247Z,9.81
2023-03-24T09:20:57.730Z,10.17
2023-03-24T09:23:26.184Z,10.43
2023-03-24T09:25:55.103Z,10.66
2023-03-24T09:28:24.351Z,10.64
2023-03-24T09:30:57.696Z,10.81
2023-03-24T09:33:27.851Z,10.69
2023-03-24T09:35:59.291Z,10.76
2023-03-24T09:38:29.922Z,10.94
2023-03-24T09:41:03.201Z,10.85
2023-03-24T09:43:39.784Z,10.79
2023-03-24T09:46:16.240Z,10.89
2023-03-24T09:48:51.637Z,10.72
2023-03-24T09:51:24.160Z,11.09
2023-03-24T09:54:02.294Z,11.25
2023-03-24T09:56:31.932Z,11.29
2023-03-24T09:59:06.927Z,11.04
2023-03-24T10:01:36.799Z,11.14
2023-03-24T10:04:15.479Z,11.10
2023-03-24T10:06:44.789Z,11.10
2023-03-24T10:09:35.360Z,11.20
2023-03-24T10:12:18.050Z,10.93
2023-03-24T10:14:57.731Z,10.99
2023-03-24T10:17:38.494Z,11.26
2023-03-24T10:20:17.493Z,11.38
2023-03-24T10:22:58.325Z,11.62
2023-03-24T10:25:34.763Z,11.96
2023-03-24T10:28:13.200Z,12.08
2023-03-24T10:30:46.200Z,11.95
2023-03-24T10:33:16.622Z,11.97
2023-03-24T10:35:56.740Z,11.91
2023-03-24T10:38:25.657Z,11.68
2023-03-24T10:40:56.346Z,11.49
2023-03-24T10:43:25.567Z,11.81
2023-03-24T10:45:56.764Z,11.78
2023-03-24T10:48:45.494Z,11.72
2023-03-24T10:51:18.933Z,11.90
2023-03-24T10:53:49.415Z,12.10
2023-03-24T10:56:20.186Z,12.24
2023-03-24T10:58:49.940Z,12.31
2023-03-24T11:01:28.098Z,12.27
2023-03-24T11:04:01.404Z,12.78
2023-03-24T11:06:32.133Z,12.81
2023-03-24T11:09:21.899Z,12.91
2023-03-24T11:11:53.046Z,13.15
2023-03-24T11:14:26.588Z,12.78
2023-03-24T11:17:03.786Z,13.12
2023-03-24T11:19:34.760Z,13.62
2023-03-24T11:22:09.267Z,13.57
2023-03-24T11:24:39.198Z,13.50
2023-03-24T11:27:08.411Z,13.09
2023-03-24T11:29:41.373Z,12.91
2023-03-24T11:32:15.108Z,13.18
2023-03-24T11:34:49.312Z,13.67
2023-03-24T11:37:22.094Z,13.53
2023-03-24T11:40:17.039Z,13.36
2023-03-24T11:42:46.597Z,13.38
2023-03-24T11:45:25.413Z,13.64
2023-03-24T11:47:59.319Z,13.34
2023-03-24T11:50:31.186Z,13.32
2023-03-24T11:53:07.799Z,13.61
2023-03-24T11:55:39.923Z,13.39
2023-03-24T11:58:19.296Z,13.73
2023-03-24T12:00:53.057Z,13.91
2023-03-24T12:04:03.405Z,13.89
2023-03-24T12:06:45.276Z,13.57
2023-03-24T12:09:27.916Z,13.59
2023-03-24T12:12:28.377Z,13.55
2023-03-24T12:15:27.292Z,13.61
2023-03-24T12:18:10.275Z,13.63
2023-03-24T12:20:46.221Z,13.92
2023-03-24T12:23:30.839Z,14.05
2023-03-24T12:26:14.747Z,13.43
2023-03-24T12:29:00.140Z,14.03
2023-03-24T12:31:52.321Z,13.83
2023-03-24T12:34:39.550Z,13.94
2023-03-24T12:37:15.711Z,13.97
2023-03-24T12:39:52.997Z,13.72
2023-03-24T12:42:27.328Z,13.82
2023-03-24T12:45:18.465Z,13.94
2023-03-24T12:48:07.175Z,13.94
2023-03-24T12:50:48.640Z,13.90
2023-03-24T12:53:30.444Z,13.89
2023-03-24T12:56:04.722Z,13.66
2023-03-24T12:58:43.391Z,12.78
2023-03-24T13:01:20.409Z,12.74
2023-03-24T13:03:51.728Z,12.78
2023-03-24T13:06:26.449Z,13.03
2023-03-24T13:09:08.093Z,13.32
2023-03-24T13:11:45.901Z,13.55
2023-03-24T13:14:23.265Z,13.49
2023-03-24T13:16:54.756Z,13.55
2023-03-24T13:19:26.271Z,13.91
2023-03-24T13:21:57.723Z,13.03
2023-03-24T13:24:27.741Z,13.28
2023-03-24T13:27:06.728Z,13.25
2023-03-24T13:30:06.789Z,13.33
2023-03-24T13:32:39.916Z,13.21
2023-03-24T13:35:18.845Z,12.91
2023-03-24T13:37:52.482Z,12.61
2023-03-24T13:40:24.849Z,11.46
2023-03-24T13:42:58.017Z,10.25
2023-03-24T13:45:37.907Z,9.76
2023-03-24T13:48:22.205Z,9.63
2023-03-24T13:50:57.436Z,9.55
2023-03-24T13:53:35.585Z,9.28
2023-03-24T13:56:06.227Z,9.03
2023-03-24T13:59:09.923Z,8.88
2023-03-24T14:01:42.338Z,8.78
2023-03-24T14:04:47.487Z,8.75
2023-03-24T14:07:46.779Z,8.70
2023-03-24T14:10:50.021Z,8.79
2023-03-24T14:13:24.520Z,8.85
2023-03-24T14:15:54.256Z,8.80
2023-03-24T14:18:44.331Z,8.99
2023-03-24T14:21:13.371Z,9.85
2023-03-24T14:23:44.118Z,10.65
2023-03-24T14:26:16.489Z,11.03
2023-03-24T14:28:46.882Z,11.36
2023-03-24T14:31:25.903Z,11.62
2023-03-24T14:34:11.112Z,11.70
2023-03-24T14:36:42.401Z,11.07
2023-03-24T14:39:26.622Z,10.51
2023-03-24T14:41:59.046Z,10.68
2023-03-24T14:45:02.296Z,10.74
2023-03-24T14:47:34.090Z,10.86
2023-03-24T14:50:14.679Z,11.28
2023-03-24T14:52:48.482Z,11.65
2023-03-24T14:55:19.962Z,11.77
2023-03-24T14:57:53.428Z,10.79
2023-03-24T15:00:26.264Z,10.72
2023-03-24T15:02:59.221Z,10.69
2023-03-24T15:05:32.755Z,10.77
2023-03-24T15:08:15.880Z,12.17
2023-03-24T15:10:51.459Z,13.09
2023-03-24T15:13:37.093Z,12.00
2023-03-24T15:16:10.079Z,11.28
2023-03-24T15:18:59.743Z,11.37
2023-03-24T15:21:35.625Z,11.08
2023-03-24T15:24:25.006Z,10.84
2023-03-24T15:26:55.931Z,11.68
2023-03-24T15:29:26.063Z,12.21
2023-03-24T15:31:54.405Z,12.59
2023-03-24T15:34:28.674Z,12.38
2023-03-24T15:37:02.327Z,12.23
2023-03-24T15:39:35.119Z,12.49
2023-03-24T15:42:07.153Z,12.57
2023-03-24T15:44:40.083Z,12.43
2023-03-24T15:47:17.240Z,12.02
2023-03-24T15:49:51.422Z,11.37
2023-03-24T15:52:31.357Z,10.88
2023-03-24T15:55:02.850Z,11.22
2023-03-24T15:57:40.911Z,10.71
2023-03-24T16:00:16.587Z,10.60
2023-03-24T16:02:48.840Z,10.51
2023-03-24T16:05:22.752Z,10.52
2023-03-24T16:08:04.373Z,10.41
2023-03-24T16:10:40.065Z,10.23
2023-03-24T16:13:16.942Z,10.17
2023-03-24T16:15:48.326Z,10.12
2023-03-24T16:18:24.276Z,9.93
2023-03-24T16:20:52.995Z,9.88
2023-03-24T16:23:26.252Z,10.05
2023-03-24T16:25:55.231Z,11.70
2023-03-24T16:28:25.390Z,11.42
2023-03-24T16:30:59.957Z,11.62
2023-03-24T16:33:30.708Z,11.86
2023-03-24T16:35:59.206Z,11.91
2023-03-24T16:38:29.362Z,12.02
2023-03-24T16:40:59.023Z,12.11
2023-03-24T16:43:30.046Z,12.84
2023-03-24T16:45:58.816Z,12.24
2023-03-24T16:48:28.563Z,10.73
2023-03-24T16:50:58.381Z,10.22
2023-03-24T16:53:26.876Z,10.17
2023-03-24T16:55:57.131Z,9.79
2023-03-24T16:58:25.732Z,9.66
2023-03-24T17:00:56.514Z,9.85
2023-03-24T17:03:30.171Z,9.71
2023-03-24T17:06:00.214Z,9.74
2023-03-24T17:08:28.831Z,9.53
2023-03-24T17:10:59.005Z,9.45
2023-03-24T17:13:27.608Z,9.60
2023-03-24T17:15:56.562Z,9.48
2023-03-24T17:18:25.271Z,9.38
2023-03-24T17:20:54.108Z,9.17
2023-03-24T17:23:22.715Z,9.13
2023-03-24T17:25:51.180Z,9.09
2023-03-24T17:28:21.518Z,9.12
2023-03-24T17:30:50.262Z,9.08
2023-03-24T17:33:19.262Z,9.14
2023-03-24T17:35:48.872Z,9.11
2023-03-24T17:38:18.109Z,9.18
2023-03-24T17:40:47.523Z,8.99
2023-03-24T17:43:16.479Z,8.92
2023-03-24T17:45:48.179Z,9.06
2023-03-24T17:48:16.646Z,8.90
2023-03-24T17:50:45.073Z,8.75
2023-03-24T17:53:14.586Z,8.75
2023-03-24T17:55:44.201Z,8.68
2023-03-24T17:58:12.603Z,8.69
2023-03-24T18:00:43.824Z,8.76
2023-03-24T18:03:21.827Z,8.68
2023-03-24T18:05:51.391Z,8.59
2023-03-24T18:08:19.774Z,8.58
2023-03-24T18:10:48.612Z,8.47
2023-03-24T18:13:17.319Z,8.54
2023-03-24T18:15:48.326Z,8.46
2023-03-24T18:18:18.261Z,8.37
2023-03-24T18:20:47.110Z,8.35
2023-03-24T18:23:16.276Z,8.34
2023-03-24T18:25:44.830Z,8.34
2023-03-24T18:28:13.734Z,8.47
2023-03-24T18:30:43.260Z,8.41
2023-03-24T18:33:16.442Z,8.35
2023-03-24T18:35:51.208Z,8.34
2023-03-24T18:38:22.738Z,8.26
2023-03-24T18:40:59.464Z,8.21
2023-03-24T18:43:30.592Z,8.15
2023-03-24T18:45:59.192Z,8.10
2023-03-24T18:48:28.651Z,8.19
2023-03-24T18:50:59.235Z,8.17
2023-03-24T18:53:27.700Z,8.13
2023-03-24T18:55:56.281Z,8.11
2023-03-24T18:58:25.029Z,8.03
2023-03-24T19:00:56.249Z,8.03
2023-03-24T19:03:25.683Z,8.04
2023-03-24T19:05:54.439Z,7.96
2023-03-24T19:08:27.980Z,7.96
2023-03-24T19:10:56.805Z,7.87
2023-03-24T19:13:25.165Z,7.86
2023-03-24T19:15:55.706Z,7.88
2023-03-24T19:18:25.215Z,7.92
2023-03-24T19:20:57.710Z,7.89
2023-03-24T19:23:28.549Z,7.86
2023-03-24T19:25:57.445Z,7.79
2023-03-24T19:28:29.492Z,7.83
2023-03-24T19:30:57.948Z,7.78
2023-03-24T19:33:27.015Z,7.77
2023-03-24T19:35:55.664Z,7.85
2023-03-24T19:38:24.873Z,7.83
2023-03-24T19:40:55.392Z,7.76
2023-03-24T19:43:24.773Z,7.80
2023-03-24T19:45:54.647Z,7.79
2023-03-24T19:48:24.165Z,7.79
2023-03-24T19:50:54.568Z,7.75
2023-03-24T19:53:30.427Z,7.72
2023-03-24T19:56:01.447Z,7.68
2023-03-24T19:58:29.977Z,7.69
2023-03-24T20:00:58.508Z,7.71
2023-03-24T20:03:29.274Z,7.76
2023-03-24T20:05:58.040Z,7.81
2023-03-24T20:08:26.637Z,7.82
2023-03-24T20:10:55.287Z,7.80
2023-03-24T20:13:26.085Z,7.84
2023-03-24T20:15:54.718Z,7.92
2023-03-24T20:18:23.277Z,7.93
2023-03-24T20:20:51.951Z,7.99
2023-03-24T20:23:20.754Z,8.00
2023-03-24T20:25:49.982Z,8.00
2023-03-24T20:28:19.419Z,8.09
2023-03-24T20:30:49.162Z,8.10
2023-03-24T20:33:17.745Z,8.06
2023-03-24T20:35:46.246Z,8.05
2023-03-24T20:38:14.625Z,8.03
2023-03-24T20:40:43.065Z,8.08
2023-03-24T20:43:11.589Z,8.07
2023-03-24T20:45:40.146Z,8.05
2023-03-24T20:48:12.281Z,8.08
2023-03-24T20:50:41.003Z,8.03
2023-03-24T20:53:09.674Z,8.09
2023-03-24T20:55:38.146Z,8.08
2023-03-24T20:58:08.697Z,8.10
2023-03-24T21:00:38.085Z,8.09
2023-03-24T21:03:06.823Z,8.09
2023-03-24T21:05:36.853Z,8.05
2023-03-24T21:08:06.166Z,8.19
2023-03-24T21:10:36.418Z,8.13
2023-03-24T21:13:05.457Z,8.10
2023-03-24T21:15:33.892Z,8.09
2023-03-24T21:18:03.528Z,8.11
2023-03-24T21:20:32.148Z,8.13
2023-03-24T21:23:04.483Z,8.07
2023-03-24T21:25:34.296Z,8.05
2023-03-24T21:28:04.087Z,8.06
2023-03-24T21:30:33.633Z,8.02
2023-03-24T21:33:02.324Z,7.98
2023-03-24T21:35:31.463Z,7.94
2023-03-24T21:38:01.652Z,7.97
2023-03-24T21:40:30.269Z,7.92
2023-03-24T21:43:04.754Z,7.90
2023-03-24T21:45:36.492Z,7.83
2023-03-24T21:48:07.092Z,7.85
2023-03-24T21:50:39.133Z,7.81
2023-03-24T21:53:15.462Z,7.77
2023-03-24T21:55:52.969Z,7.78
2023-03-24T21:58:23.698Z,7.76
2023-03-24T22:00:53.341Z,7.75
2023-03-24T22:03:22.257Z,7.73
2023-03-24T22:05:52.338Z,7.78
2023-03-24T22:08:26.986Z,7.75
2023-03-24T22:11:00.742Z,7.74
2023-03-24T22:13:33.226Z,7.73
2023-03-24T22:16:06.441Z,7.74
2023-03-24T22:18:36.579Z,7.79
2023-03-24T22:21:07.820Z,7.72
2023-03-24T22:23:40.488Z,7.73
2023-03-24T22:26:11.352Z,7.71
2023-03-24T22:28:40.780Z,7.62
2023-03-24T22:31:11.150Z,7.55
2023-03-24T22:33:40.250Z,7.55
2023-03-24T22:36:11.615Z,7.43
2023-03-24T22:38:42.607Z,7.42
2023-03-24T22:41:14.556Z,7.46
2023-03-24T22:43:43.699Z,7.48
2023-03-24T22:46:12.869Z,7.49
2023-03-24T22:48:41.368Z,7.51
2023-03-24T22:51:12.711Z,7.54
2023-03-24T22:53:43.629Z,7.57
2023-03-24T22:56:18.302Z,7.61
2023-03-24T22:58:46.684Z,7.58
2023-03-24T23:01:17.771Z,7.56
2023-03-24T23:03:46.932Z,7.59
2023-03-24T23:06:16.068Z,7.58
2023-03-24T23:08:46.014Z,7.60
2023-03-24T23:11:17.012Z,7.59
2023-03-24T23:13:46.918Z,7.58
2023-03-24T23:16:15.646Z,7.59
2023-03-24T23:18:44.973Z,7.63
2023-03-24T23:21:15.359Z,7.63
2023-03-24T23:23:46.767Z,7.64
2023-03-24T23:26:26.188Z,7.62
2023-03-24T23:28:55.782Z,7.65
2023-03-24T23:31:27.152Z,7.63
2023-03-24T23:33:57.669Z,7.64
2023-03-24T23:36:28.639Z,7.66
2023-03-24T23:38:59.018Z,7.68
2023-03-24T23:41:29.035Z,7.67
2023-03-24T23:43:57.567Z,7.66
2023-03-24T23:46:26.087Z,7.67
2023-03-24T23:48:55.645Z,7.67
2023-03-24T23:51:24.082Z,7.72
2023-03-24T23:53:52.723Z,7.69
2023-03-24T23:56:23.170Z,7.67
2023-03-24T23:58:52.886Z,7.62
